createdAt,value
2018-02-16T00:01:37.892Z,98.40
2018-02-16T00:04:06.923Z,98.57
2018-02-16T00:06:36.306Z,98.79
2018-02-16T00:09:05.077Z,98.57
2018-02-16T00:11:33.950Z,98.48
2018-02-16T00:14:03.671Z,98.42
2018-02-16T00:16:32.465Z,98.56
2018-02-16T00:19:01.325Z,98.47
2018-02-16T00:21:56.279Z,98.37
2018-02-16T00:24:26.200Z,98.33
2018-02-16T00:26:55.705Z,98.30
2018-02-16T00:29:26.155Z,98.41
2018-02-16T00:31:54.906Z,98.26
2018-02-16T00:34:23.716Z,98.24
2018-02-16T00:36:53.168Z,98.26
2018-02-16T00:39:21.857Z,98.27
2018-02-16T00:41:52.694Z,98.41
2018-02-16T00:44:21.891Z,98.47
2018-02-16T00:46:50.696Z,98.49
2018-02-16T00:49:22.752Z,98.47
2018-02-16T00:51:52.166Z,98.76
2018-02-16T00:54:20.833Z,98.74
2018-02-16T00:56:49.927Z,98.75
2018-02-16T00:59:18.562Z,98.78
2018-02-16T01:01:47.993Z,98.72
2018-02-16T01:04:16.792Z,98.65
2018-02-16T01:06:45.692Z,98.75
2018-02-16T01:09:16.286Z,98.62
2018-02-16T01:11:44.664Z,98.58
2018-02-16T01:14:14.362Z,98.66
2018-02-16T01:16:42.924Z,98.52
2018-02-16T01:19:12.194Z,98.47
2018-02-16T01:21:41.521Z,98.24
2018-02-16T01:24:11.156Z,98.24
2018-02-16T01:26:39.728Z,98.48
2018-02-16T01:29:09.242Z,98.22
2018-02-16T01:31:37.838Z,98.21
2018-02-16T01:34:06.401Z,98.45
2018-02-16T01:36:35.065Z,98.43
2018-02-16T01:39:03.725Z,98.47
2018-02-16T01:41:32.115Z,98.63
2018-02-16T01:44:00.960Z,98.78
2018-02-16T01:46:29.522Z,98.80
2018-02-16T01:48:59.050Z,98.93
2018-02-16T01:51:28.041Z,98.81
2018-02-16T01:53:57.851Z,98.85
2018-02-16T01:56:27.101Z,98.97
2018-02-16T01:58:55.935Z,98.80
2018-02-16T02:01:24.674Z,98.74
2018-02-16T02:03:53.943Z,98.94
2018-02-16T02:06:22.613Z,98.84
2018-02-16T02:08:51.919Z,98.71
2018-02-16T02:11:20.694Z,98.86
2018-02-16T02:13:49.068Z,98.81
2018-02-16T02:16:17.652Z,98.47
2018-02-16T02:18:46.261Z,98.51
2018-02-16T02:21:16.797Z,98.82
2018-02-16T02:23:46.164Z,98.75
2018-02-16T02:26:14.900Z,98.65
2018-02-16T02:28:43.381Z,98.64
2018-02-16T02:31:12.374Z,98.54
2018-02-16T02:33:41.839Z,98.57
2018-02-16T02:36:10.634Z,98.30
2018-02-16T02:38:40.255Z,98.56
2018-02-16T02:43:44.034Z,98.58
2018-02-16T02:46:12.576Z,98.59
2018-02-16T02:48:42.123Z,98.37
2018-02-16T02:51:10.769Z,98.66
2018-02-16T02:53:40.479Z,98.67
2018-02-16T02:56:09.309Z,98.68
2018-02-16T02:58:37.785Z,98.44
2018-02-16T03:01:06.571Z,98.28
2018-02-16T03:06:09.709Z,98.10
2018-02-16T03:08:38.147Z,98.22
2018-02-16T03:11:06.837Z,98.33
2018-02-16T03:13:35.395Z,98.68
2018-02-16T03:16:04.304Z,98.78
2018-02-16T03:18:33.058Z,98.70
2018-02-16T03:21:02.392Z,98.38
2018-02-16T03:23:30.994Z,98.27
2018-02-16T03:25:59.483Z,98.39
2018-02-16T03:28:28.304Z,98.34
2018-02-16T03:30:57.229Z,98.06
2018-02-16T03:33:25.623Z,97.98
2018-02-16T03:35:54.295Z,98.27
2018-02-16T03:38:24.233Z,98.27
2018-02-16T03:40:52.752Z,98.38
2018-02-16T03:43:21.371Z,98.27
2018-02-16T03:45:49.833Z,98.31
2018-02-16T03:48:18.440Z,98.21
2018-02-16T03:50:46.885Z,98.17
2018-02-16T03:53:15.779Z,98.26
2018-02-16T03:55:44.662Z,98.33
2018-02-16T03:58:13.171Z,98.42
2018-02-16T04:00:41.846Z,98.31
2018-02-16T04:03:10.572Z,98.52
2018-02-16T04:05:39.187Z,98.43
2018-02-16T04:08:07.960Z,98.28
2018-02-16T04:10:36.519Z,98.35
2018-02-16T04:13:06.991Z,98.35
2018-02-16T04:15:36.592Z,98.20
2018-02-16T04:18:05.986Z,98.39
2018-02-16T04:20:34.448Z,98.47
2018-02-16T04:23:03.371Z,98.65
2018-02-16T04:25:31.925Z,98.44
2018-02-16T04:28:00.367Z,98.27
2018-02-16T04:30:29.368Z,98.08
2018-02-16T04:32:58.036Z,97.72
2018-02-16T04:35:26.660Z,97.96
2018-02-16T04:37:56.007Z,97.99
2018-02-16T04:40:24.859Z,97.91
2018-02-16T04:42:53.480Z,97.79
2018-02-16T04:45:22.362Z,97.94
2018-02-16T04:47:51.163Z,97.72
2018-02-16T04:50:19.662Z,97.69
2018-02-16T04:52:49.256Z,97.89
2018-02-16T04:55:17.854Z,97.98
2018-02-16T04:57:46.264Z,97.95
2018-02-16T05:00:16.034Z,98.03
2018-02-16T05:02:45.628Z,98.21
2018-02-16T05:05:14.181Z,98.08
2018-02-16T05:07:43.506Z,98.22
2018-02-16T05:10:12.067Z,98.31
2018-02-16T05:12:40.680Z,98.05
2018-02-16T05:15:10.002Z,97.91
2018-02-16T05:17:39.163Z,98.28
2018-02-16T05:20:07.860Z,98.35
2018-02-16T05:22:36.501Z,98.22
2018-02-16T05:25:05.119Z,98.07
2018-02-16T05:27:33.612Z,97.86
2018-02-16T05:30:02.310Z,97.53
2018-02-16T05:32:31.776Z,97.36
2018-02-16T05:35:00.558Z,97.53
2018-02-16T05:37:28.994Z,97.49
2018-02-16T05:39:57.645Z,97.67
2018-02-16T05:42:27.783Z,97.46
2018-02-16T05:44:57.371Z,97.93
2018-02-16T05:47:25.982Z,97.71
2018-02-16T05:49:54.661Z,97.50
2018-02-16T05:52:23.509Z,97.39
2018-02-16T05:54:52.713Z,97.24
2018-02-16T05:57:22.403Z,97.34
2018-02-16T05:59:50.991Z,97.61
2018-02-16T06:02:20.640Z,97.37
2018-02-16T06:04:49.489Z,97.32
2018-02-16T06:07:18.356Z,97.49
2018-02-16T06:09:46.976Z,97.26
2018-02-16T06:12:15.634Z,97.26
2018-02-16T06:14:44.196Z,97.28
2018-02-16T06:17:13.126Z,97.10
2018-02-16T06:19:42.043Z,97.18
2018-02-16T06:22:10.561Z,97.44
2018-02-16T06:24:39.154Z,97.51
2018-02-16T06:27:07.748Z,97.43
2018-02-16T06:29:36.382Z,97.40
2018-02-16T06:32:05.790Z,97.05
2018-02-16T06:34:34.672Z,96.82
2018-02-16T06:37:03.043Z,97.20
2018-02-16T06:39:31.530Z,97.12
2018-02-16T06:42:00.097Z,97.16
2018-02-16T06:44:28.557Z,96.71
2018-02-16T06:46:57.276Z,97.06
2018-02-16T06:49:26.968Z,96.92
2018-02-16T06:51:55.479Z,97.09
2018-02-16T06:54:24.093Z,97.47
2018-02-16T06:56:52.896Z,97.14
2018-02-16T06:59:21.904Z,97.04
2018-02-16T07:01:50.762Z,97.30
2018-02-16T07:04:19.393Z,97.62
2018-02-16T07:06:47.916Z,97.55
2018-02-16T07:09:16.714Z,97.25
2018-02-16T07:11:45.134Z,96.41
2018-02-16T07:14:14.706Z,96.09
2018-02-16T07:16:43.300Z,95.47
2018-02-16T07:19:11.934Z,94.69
2018-02-16T07:21:40.516Z,95.02
2018-02-16T07:24:09.329Z,94.68
2018-02-16T07:26:37.963Z,93.92
2018-02-16T07:29:06.794Z,93.87
2018-02-16T07:31:36.377Z,94.15
2018-02-16T07:34:06.216Z,93.93
2018-02-16T07:36:34.801Z,93.88
2018-02-16T07:39:04.451Z,94.26
2018-02-16T07:41:33.009Z,93.23
2018-02-16T07:44:01.831Z,93.80
2018-02-16T07:46:31.553Z,94.46
2018-02-16T07:49:00.027Z,94.55
2018-02-16T07:51:29.594Z,95.18
2018-02-16T07:53:58.228Z,95.21
2018-02-16T07:56:27.400Z,95.11
2018-02-16T07:58:56.017Z,95.52
2018-02-16T08:01:24.641Z,95.58
2018-02-16T08:03:53.424Z,95.70
2018-02-16T08:06:22.304Z,95.67
2018-02-16T08:08:51.115Z,95.74
2018-02-16T08:11:19.537Z,95.65
2018-02-16T08:13:49.209Z,95.71
2018-02-16T08:16:18.596Z,95.55
2018-02-16T08:18:47.258Z,95.60
2018-02-16T08:21:15.671Z,94.37
2018-02-16T08:23:44.633Z,93.74
2018-02-16T08:26:13.502Z,94.67
2018-02-16T08:28:42.326Z,94.45
2018-02-16T08:31:11.305Z,94.00
2018-02-16T08:33:41.155Z,92.93
2018-02-16T08:36:09.751Z,93.54
2018-02-16T08:38:39.349Z,92.68
2018-02-16T08:41:08.733Z,92.92
2018-02-16T08:43:38.180Z,93.52
2018-02-16T08:46:09.895Z,94.01
2018-02-16T08:48:38.443Z,93.46
2018-02-16T08:51:07.089Z,93.82
2018-02-16T08:53:35.687Z,93.63
2018-02-16T08:56:04.601Z,93.74
2018-02-16T08:58:33.498Z,94.25
2018-02-16T09:01:01.911Z,93.88
2018-02-16T09:03:31.271Z,92.62
2018-02-16T09:05:59.770Z,91.13
2018-02-16T09:08:28.710Z,92.40
2018-02-16T09:10:57.640Z,91.92
2018-02-16T09:13:26.160Z,91.65
2018-02-16T09:15:55.068Z,91.76
2018-02-16T09:18:24.368Z,90.92
2018-02-16T09:20:53.066Z,91.88
2018-02-16T09:23:21.793Z,91.59
2018-02-16T09:25:50.385Z,91.44
2018-02-16T09:28:19.508Z,91.62
2018-02-16T09:30:48.157Z,90.64
2018-02-16T09:33:16.656Z,90.13
2018-02-16T09:35:46.475Z,87.84
2018-02-16T09:38:15.847Z,85.30
2018-02-16T09:40:44.592Z,82.26
2018-02-16T09:43:13.455Z,81.78
2018-02-16T09:45:42.141Z,83.01
2018-02-16T09:48:12.122Z,81.49
2018-02-16T09:50:40.574Z,80.68
2018-02-16T09:53:09.173Z,78.12
2018-02-16T09:55:38.081Z,81.30
2018-02-16T09:58:07.095Z,82.25
2018-02-16T10:00:36.993Z,85.59
2018-02-16T10:03:06.381Z,85.16
2018-02-16T10:05:36.295Z,84.58
2018-02-16T10:08:04.786Z,84.09
2018-02-16T10:10:33.435Z,84.47
2018-02-16T10:13:02.228Z,84.83
2018-02-16T10:15:30.942Z,85.23
2018-02-16T10:18:00.520Z,85.51
2018-02-16T10:20:29.440Z,85.23
2018-02-16T10:22:58.417Z,85.14
2018-02-16T10:25:27.923Z,87.84
2018-02-16T10:27:56.508Z,86.37
2018-02-16T10:30:25.268Z,85.07
2018-02-16T10:32:54.297Z,85.80
2018-02-16T10:35:22.880Z,84.74
2018-02-16T10:37:51.456Z,84.26
2018-02-16T10:40:20.281Z,84.32
2018-02-16T10:42:49.411Z,82.25
2018-02-16T10:45:17.956Z,81.67
2018-02-16T10:47:47.593Z,79.97
2018-02-16T10:50:16.072Z,78.33
2018-02-16T10:52:45.294Z,76.32
2018-02-16T10:55:13.902Z,78.20
2018-02-16T10:57:43.377Z,78.19
2018-02-16T11:00:11.797Z,77.31
2018-02-16T11:02:46.051Z,78.04
2018-02-16T11:05:14.887Z,76.50
2018-02-16T11:07:49.952Z,75.28
2018-02-16T11:10:19.578Z,76.54
2018-02-16T11:12:48.128Z,78.27
2018-02-16T11:15:17.083Z,76.67
2018-02-16T11:17:45.945Z,78.07
2018-02-16T11:20:15.015Z,78.62
2018-02-16T11:22:43.825Z,79.24
2018-02-16T11:25:12.583Z,78.28
2018-02-16T11:27:41.151Z,78.14
2018-02-16T11:30:10.856Z,79.94
2018-02-16T11:32:40.292Z,80.83
2018-02-16T11:35:10.010Z,80.11
2018-02-16T11:37:39.045Z,79.29
2018-02-16T11:40:07.934Z,78.43
2018-02-16T11:42:37.580Z,77.82
2018-02-16T11:45:06.219Z,76.19
2018-02-16T11:47:35.682Z,76.44
2018-02-16T11:50:04.308Z,76.32
2018-02-16T11:52:33.074Z,77.28
2018-02-16T11:55:01.979Z,77.07
2018-02-16T11:57:31.039Z,76.40
2018-02-16T11:59:59.914Z,76.18
2018-02-16T12:02:29.232Z,74.93
2018-02-16T12:04:58.425Z,75.92
2018-02-16T12:07:26.869Z,75.79
2018-02-16T12:09:55.792Z,73.50
2018-02-16T12:12:24.360Z,73.13
2018-02-16T12:14:53.272Z,72.42
2018-02-16T12:17:22.826Z,72.23
2018-02-16T12:19:52.309Z,70.90
2018-02-16T12:22:20.927Z,66.45
2018-02-16T12:24:49.595Z,63.22
2018-02-16T12:27:18.922Z,60.62
2018-02-16T12:29:48.529Z,61.31
2018-02-16T12:32:16.964Z,61.11
2018-02-16T12:34:45.464Z,62.62
2018-02-16T12:37:15.593Z,63.47
2018-02-16T12:39:44.812Z,66.00
2018-02-16T12:42:13.533Z,61.41
2018-02-16T12:44:42.129Z,61.72
2018-02-16T12:47:10.727Z,62.71
2018-02-16T12:49:40.267Z,61.86
2018-02-16T12:52:08.881Z,62.22
2018-02-16T12:54:37.462Z,64.90
2018-02-16T12:57:06.430Z,61.09
2018-02-16T12:59:35.305Z,61.93
2018-02-16T13:02:04.103Z,63.14
2018-02-16T13:04:33.405Z,61.47
2018-02-16T13:07:01.964Z,62.42
2018-02-16T13:09:30.499Z,60.83
2018-02-16T13:11:59.287Z,59.53
2018-02-16T13:14:27.925Z,61.92
2018-02-16T13:16:56.592Z,62.25
2018-02-16T13:19:25.367Z,63.40
2018-02-16T13:21:54.240Z,64.63
2018-02-16T13:24:22.794Z,60.82
2018-02-16T13:26:51.368Z,54.32
2018-02-16T13:29:20.078Z,50.54
2018-02-16T13:31:49.788Z,49.81
2018-02-16T13:34:18.960Z,48.16
2018-02-16T13:36:48.778Z,47.93
2018-02-16T13:39:17.606Z,50.02
2018-02-16T13:41:47.042Z,52.94
2018-02-16T13:44:15.685Z,54.53
2018-02-16T13:46:45.422Z,51.25
2018-02-16T13:49:14.012Z,50.03
2018-02-16T13:51:43.705Z,51.07
2018-02-16T13:54:12.525Z,52.29
2018-02-16T13:56:41.824Z,51.80
2018-02-16T13:59:11.506Z,52.89
2018-02-16T14:01:41.863Z,55.64
2018-02-16T14:04:10.945Z,57.32
2018-02-16T14:06:40.162Z,56.31
2018-02-16T14:12:24.089Z,57.81
2018-02-16T14:14:53.991Z,56.34
2018-02-16T14:17:22.603Z,55.84
2018-02-16T14:19:52.231Z,56.13
2018-02-16T14:22:21.493Z,55.81
2018-02-16T14:24:49.911Z,56.14
2018-02-16T14:27:19.814Z,56.39
2018-02-16T14:29:48.531Z,55.49
2018-02-16T14:32:18.504Z,56.05
2018-02-16T14:34:47.526Z,55.17
2018-02-16T14:37:16.534Z,57.53
2018-02-16T14:39:45.175Z,56.81
2018-02-16T14:42:14.642Z,58.00
2018-02-16T14:44:43.667Z,55.21
2018-02-16T14:47:26.902Z,54.54
2018-02-16T14:49:55.739Z,53.67
2018-02-16T14:52:24.287Z,54.84
2018-02-16T14:54:53.215Z,54.29
2018-02-16T14:57:22.077Z,55.21
2018-02-16T14:59:52.066Z,54.77
2018-02-16T15:02:20.712Z,53.21
2018-02-16T15:04:49.338Z,54.99
2018-02-16T15:07:19.856Z,57.05
2018-02-16T15:09:48.638Z,57.86
2018-02-16T15:12:18.142Z,57.46
2018-02-16T15:14:47.135Z,57.54
2018-02-16T15:17:16.669Z,60.36
2018-02-16T15:19:46.764Z,60.24
2018-02-16T15:22:15.879Z,62.35
2018-02-16T15:24:45.891Z,63.73
2018-02-16T15:27:15.397Z,61.95
2018-02-16T15:29:45.049Z,60.77
2018-02-16T15:32:13.794Z,61.34
2018-02-16T15:34:42.549Z,60.63
2018-02-16T15:37:11.240Z,59.20
2018-02-16T15:39:40.440Z,57.18
2018-02-16T15:42:09.799Z,58.98
2018-02-16T15:44:39.447Z,61.84
2018-02-16T15:47:08.331Z,63.06
2018-02-16T15:49:37.330Z,62.86
2018-02-16T15:52:11.345Z,63.40
2018-02-16T15:54:40.345Z,62.66
2018-02-16T15:57:09.963Z,62.12
2018-02-16T15:59:38.592Z,62.93
2018-02-16T16:02:07.377Z,63.12
2018-02-16T16:04:36.369Z,62.73
2018-02-16T16:07:06.359Z,62.54
2018-02-16T16:09:35.837Z,63.51
2018-02-16T16:12:06.347Z,64.40
2018-02-16T16:14:35.349Z,65.21
2018-02-16T16:17:06.983Z,65.80
2018-02-16T16:19:35.646Z,66.34
2018-02-16T16:22:04.335Z,67.19
2018-02-16T16:24:35.138Z,66.61
2018-02-16T16:27:05.673Z,67.59
2018-02-16T16:29:36.589Z,67.62
2018-02-16T16:32:05.693Z,68.25
2018-02-16T16:34:34.490Z,67.81
2018-02-16T16:37:03.379Z,69.48
2018-02-16T16:39:31.922Z,71.33
2018-02-16T16:42:01.307Z,72.38
2018-02-16T16:44:30.091Z,72.13
2018-02-16T16:46:58.882Z,72.88
2018-02-16T16:49:31.684Z,73.78
2018-02-16T16:52:01.105Z,73.92
2018-02-16T16:54:30.926Z,74.63
2018-02-16T16:56:59.644Z,74.50
2018-02-16T16:59:28.564Z,74.80
2018-02-16T17:01:57.284Z,75.66
2018-02-16T17:04:26.122Z,75.47
2018-02-16T17:06:55.158Z,75.52
2018-02-16T17:09:24.233Z,76.26
2018-02-16T17:11:53.566Z,75.79
2018-02-16T17:14:22.601Z,76.76
2018-02-16T17:16:51.490Z,76.92
2018-02-16T17:19:21.143Z,77.62
2018-02-16T17:21:49.789Z,77.06
2018-02-16T17:24:19.594Z,76.56
2018-02-16T17:26:48.136Z,77.45
2018-02-16T17:29:17.474Z,77.19
2018-02-16T17:31:47.033Z,76.25
2018-02-16T17:34:16.018Z,76.66
2018-02-16T17:36:45.792Z,76.17
2018-02-16T17:39:14.338Z,75.28
2018-02-16T17:41:43.914Z,75.33
2018-02-16T17:44:13.410Z,75.57
2018-02-16T17:46:42.712Z,74.11
2018-02-16T17:49:11.917Z,73.63
2018-02-16T17:51:40.784Z,73.62
2018-02-16T17:54:09.331Z,74.69
2018-02-16T17:56:38.946Z,75.35
2018-02-16T17:59:07.727Z,75.66
2018-02-16T18:01:36.490Z,75.78
2018-02-16T18:04:04.942Z,76.48
2018-02-16T18:06:33.647Z,76.87
2018-02-16T18:09:02.512Z,77.31
2018-02-16T18:11:31.885Z,78.17
2018-02-16T18:14:00.496Z,77.85
2018-02-16T18:16:29.173Z,77.79
2018-02-16T18:18:57.610Z,77.55
2018-02-16T18:21:26.215Z,78.09
2018-02-16T18:23:54.915Z,78.86
2018-02-16T18:26:23.705Z,77.45
2018-02-16T18:28:52.500Z,77.09
2018-02-16T18:31:21.212Z,75.77
2018-02-16T18:34:03.768Z,76.86
2018-02-16T18:39:31.625Z,77.70
2018-02-16T18:42:00.297Z,76.48
2018-02-16T18:44:29.110Z,77.47
2018-02-16T18:46:57.904Z,77.43
2018-02-16T18:49:26.682Z,76.48
2018-02-16T18:51:55.423Z,73.66
2018-02-16T18:54:25.008Z,69.78
2018-02-16T18:56:54.373Z,66.40
2018-02-16T18:59:22.780Z,66.14
2018-02-16T19:01:51.314Z,66.76
2018-02-16T19:04:20.307Z,67.29
2018-02-16T19:06:48.842Z,68.82
2018-02-16T19:09:17.449Z,69.59
2018-02-16T19:11:46.809Z,69.36
2018-02-16T19:14:15.491Z,71.47
2018-02-16T19:16:44.018Z,71.79
2018-02-16T19:19:13.558Z,72.29
2018-02-16T19:21:41.927Z,71.72
2018-02-16T19:24:10.571Z,69.66
2018-02-16T19:26:39.378Z,67.52
2018-02-16T19:29:07.825Z,69.23
2018-02-16T19:31:36.982Z,70.08
2018-02-16T19:34:05.417Z,67.92
2018-02-16T19:36:34.776Z,64.83
2018-02-16T19:39:03.852Z,64.66
2018-02-16T19:41:32.460Z,57.82
2018-02-16T19:44:03.899Z,55.97
2018-02-16T19:46:32.374Z,54.72
2018-02-16T19:49:00.848Z,54.18
2018-02-16T19:51:29.807Z,54.86
2018-02-16T19:53:58.275Z,53.36
2018-02-16T19:56:27.531Z,54.50
2018-02-16T19:58:56.451Z,53.53
2018-02-16T20:01:25.052Z,53.93
2018-02-16T20:03:54.585Z,55.03
2018-02-16T20:06:23.664Z,54.17
2018-02-16T20:08:52.881Z,56.82
2018-02-16T20:11:21.598Z,55.65
2018-02-16T20:13:50.157Z,56.26
2018-02-16T20:16:19.082Z,57.25
2018-02-16T20:18:48.000Z,55.80
2018-02-16T20:21:16.929Z,57.52
2018-02-16T20:23:45.810Z,57.50
2018-02-16T20:26:15.676Z,56.98
2018-02-16T20:28:45.097Z,59.79
2018-02-16T20:31:13.501Z,60.12
2018-02-16T20:33:42.657Z,59.94
2018-02-16T20:36:11.455Z,63.35
2018-02-16T20:38:40.589Z,64.73
2018-02-16T20:41:09.021Z,65.28
2018-02-16T20:43:37.453Z,64.97
2018-02-16T20:46:05.999Z,65.88
2018-02-16T20:48:35.377Z,65.58
2018-02-16T20:51:04.002Z,65.71
2018-02-16T20:53:33.771Z,66.71
2018-02-16T20:56:02.921Z,65.95
2018-02-16T20:58:31.517Z,66.83
2018-02-16T21:01:00.351Z,67.59
2018-02-16T21:03:28.787Z,67.88
2018-02-16T21:05:58.794Z,68.83
2018-02-16T21:08:27.661Z,68.92
2018-02-16T21:10:57.385Z,69.92
2018-02-16T21:13:26.288Z,69.90
2018-02-16T21:15:55.048Z,70.50
2018-02-16T21:18:24.833Z,70.90
2018-02-16T21:20:54.153Z,71.16
2018-02-16T21:23:22.778Z,70.79
2018-02-16T21:25:51.513Z,71.45
2018-02-16T21:28:20.538Z,70.56
2018-02-16T21:30:49.114Z,69.23
2018-02-16T21:33:19.130Z,67.98
2018-02-16T21:35:48.256Z,68.34
2018-02-16T21:38:17.711Z,69.83
2018-02-16T21:40:46.185Z,69.61
2018-02-16T21:43:14.615Z,69.50
2018-02-16T21:45:43.309Z,70.84
2018-02-16T21:48:11.785Z,69.99
2018-02-16T21:50:41.038Z,70.41
2018-02-16T21:53:09.815Z,71.20
2018-02-16T21:55:38.471Z,71.44
2018-02-16T21:58:07.156Z,71.60
2018-02-16T22:00:35.872Z,72.09
2018-02-16T22:03:04.681Z,71.62
2018-02-16T22:05:34.281Z,72.57
2018-02-16T22:08:02.915Z,73.10
2018-02-16T22:10:32.758Z,73.49
2018-02-16T22:13:01.399Z,73.34
2018-02-16T22:15:30.782Z,72.63
2018-02-16T22:18:00.014Z,72.42
2018-02-16T22:20:29.157Z,72.38
2018-02-16T22:22:58.942Z,72.42
2018-02-16T22:25:27.537Z,72.11
2018-02-16T22:27:56.446Z,72.09
2018-02-16T22:30:25.433Z,72.42
2018-02-16T22:32:57.831Z,72.60
2018-02-16T22:35:26.888Z,72.81
2018-02-16T22:37:55.996Z,72.82
2018-02-16T22:40:24.669Z,72.48
2018-02-16T22:42:53.375Z,72.28
2018-02-16T22:45:23.726Z,72.89
2018-02-16T22:47:52.653Z,72.46
2018-02-16T22:50:21.052Z,71.74
2018-02-16T22:52:51.072Z,71.25
2018-02-16T22:55:21.698Z,70.61
2018-02-16T22:57:52.528Z,71.48
2018-02-16T23:00:22.791Z,71.28
2018-02-16T23:02:52.788Z,71.58
2018-02-16T23:05:23.346Z,71.16
2018-02-16T23:07:52.405Z,71.17
2018-02-16T23:10:21.825Z,71.40
2018-02-16T23:12:52.268Z,71.48
2018-02-16T23:15:20.987Z,70.64
2018-02-16T23:17:51.728Z,70.62
2018-02-16T23:20:20.800Z,70.95
2018-02-16T23:22:55.434Z,71.00
2018-02-16T23:25:28.106Z,70.79
2018-02-16T23:28:00.113Z,70.87
2018-02-16T23:30:35.467Z,71.13
2018-02-16T23:33:06.601Z,71.04
2018-02-16T23:35:36.147Z,70.56
2018-02-16T23:38:10.785Z,70.60
2018-02-16T23:40:39.386Z,70.64
2018-02-16T23:43:07.795Z,70.49
2018-02-16T23:45:37.216Z,69.87
2018-02-16T23:48:06.710Z,69.42
2018-02-16T23:50:35.133Z,70.13
2018-02-16T23:53:05.674Z,70.00
2018-02-16T23:55:34.823Z,69.55
2018-02-16T23:58:04.728Z,69.71
